createdAt,value
2022-12-31T00:01:15.530Z,100038.16
2022-12-31T00:03:47.518Z,100033.69
2022-12-31T00:06:18.438Z,100024.75
2022-12-31T00:08:49.779Z,100032.00
2022-12-31T00:11:18.523Z,100060.28
2022-12-31T00:13:48.643Z,100040.78
2022-12-31T00:16:21.722Z,100051.03
2022-12-31T00:18:51.457Z,100053.31
2022-12-31T00:21:21.173Z,100049.41
2022-12-31T00:23:51.042Z,100050.94
2022-12-31T00:26:24.767Z,100044.81
2022-12-31T00:28:53.896Z,100041.47
2022-12-31T00:31:28.850Z,100036.53
2022-12-31T00:33:57.331Z,100035.34
2022-12-31T00:36:28.114Z,100034.22
2022-12-31T00:39:04.832Z,100034.50
2022-12-31T00:41:33.720Z,100037.31
2022-12-31T00:44:01.809Z,100033.69
2022-12-31T00:46:32.151Z,100039.00
2022-12-31T00:49:02.879Z,100050.41
2022-12-31T00:51:31.607Z,100041.69
2022-12-31T00:54:00.207Z,100041.38
2022-12-31T00:56:33.151Z,100044.25
2022-12-31T00:59:02.586Z,100042.56
2022-12-31T01:01:32.839Z,100042.88
2022-12-31T01:04:07.682Z,100042.25
2022-12-31T01:06:37.677Z,100060.16
2022-12-31T01:09:05.965Z,100058.31
2022-12-31T01:11:38.959Z,100066.94
2022-12-31T01:14:09.818Z,100064.41
2022-12-31T01:16:44.050Z,100075.50
2022-12-31T01:19:16.145Z,100070.91
2022-12-31T01:21:46.030Z,100078.66
2022-12-31T01:24:16.177Z,100077.84
2022-12-31T01:26:48.716Z,100091.16
2022-12-31T01:29:17.090Z,100072.22
2022-12-31T01:31:49.336Z,100081.88
2022-12-31T01:34:22.150Z,100094.44
2022-12-31T01:36:53.963Z,100083.06
2022-12-31T01:39:22.125Z,100087.84
2022-12-31T01:41:53.936Z,100074.22
2022-12-31T01:44:48.415Z,100081.50
2022-12-31T01:47:21.934Z,100095.13
2022-12-31T01:49:54.716Z,100080.03
2022-12-31T01:52:28.335Z,100088.47
2022-12-31T01:55:00.897Z,100090.75
2022-12-31T01:57:31.355Z,100115.97
2022-12-31T02:00:02.983Z,100102.09
2022-12-31T02:02:33.127Z,100090.53
2022-12-31T02:05:06.475Z,100098.97
2022-12-31T02:07:37.323Z,100103.94
2022-12-31T02:10:08.921Z,100106.94
2022-12-31T02:12:39.180Z,100086.84
2022-12-31T02:15:08.873Z,100089.34
2022-12-31T02:17:45.651Z,100083.88
2022-12-31T02:20:42.797Z,100078.56
2022-12-31T02:23:31.991Z,100085.72
2022-12-31T02:26:32.917Z,100090.16
2022-12-31T02:29:40.968Z,100100.16
2022-12-31T02:32:19.992Z,100090.38
2022-12-31T02:34:52.605Z,100103.44
2022-12-31T02:37:24.447Z,100091.69
2022-12-31T02:39:52.587Z,100092.66
2022-12-31T02:42:21.593Z,100092.00
2022-12-31T02:44:51.085Z,100095.31
2022-12-31T02:47:40.305Z,100105.28
2022-12-31T02:50:26.902Z,100107.69
2022-12-31T02:53:03.224Z,100098.66
2022-12-31T02:55:38.060Z,100095.47
2022-12-31T02:58:14.574Z,100094.03
2022-12-31T03:01:07.290Z,100101.81
2022-12-31T03:03:39.119Z,100096.84
2022-12-31T03:06:10.387Z,100118.53
2022-12-31T03:08:58.038Z,100105.09
2022-12-31T03:11:42.625Z,100104.13
2022-12-31T03:14:12.581Z,100105.31
2022-12-31T03:16:41.043Z,100110.41
2022-12-31T03:19:29.322Z,100097.59
2022-12-31T03:22:16.887Z,100119.72
2022-12-31T03:25:03.026Z,100094.47
2022-12-31T03:27:31.266Z,100108.34
2022-12-31T03:29:59.429Z,100104.78
2022-12-31T03:32:28.175Z,100114.75
2022-12-31T03:34:57.593Z,100111.03
2022-12-31T03:37:28.607Z,100109.50
2022-12-31T03:39:59.046Z,100126.31
2022-12-31T03:42:30.944Z,100130.44
2022-12-31T03:45:00.133Z,100127.72
2022-12-31T03:47:28.749Z,100130.75
2022-12-31T03:49:59.165Z,100128.22
2022-12-31T03:52:28.355Z,100122.81
2022-12-31T03:54:57.620Z,100144.91
2022-12-31T03:57:26.232Z,100125.00
2022-12-31T03:59:54.319Z,100129.78
2022-12-31T04:02:28.596Z,100139.78
2022-12-31T04:05:01.406Z,100130.38
2022-12-31T04:07:34.721Z,100136.84
2022-12-31T04:10:03.660Z,100147.44
2022-12-31T04:12:32.437Z,100150.94
2022-12-31T04:15:00.441Z,100148.28
2022-12-31T04:17:28.898Z,100158.75
2022-12-31T04:19:58.797Z,100138.16
2022-12-31T04:22:29.585Z,100144.00
2022-12-31T04:24:58.008Z,100148.00
2022-12-31T04:27:26.988Z,100135.22
2022-12-31T04:29:55.605Z,100130.38
2022-12-31T04:32:28.141Z,100148.91
2022-12-31T04:34:58.044Z,100126.38
2022-12-31T04:37:32.100Z,100144.97
2022-12-31T04:40:05.773Z,100137.34
2022-12-31T04:42:34.842Z,100161.59
2022-12-31T04:45:06.284Z,100146.31
2022-12-31T04:47:34.802Z,100167.91
2022-12-31T04:50:03.407Z,100161.13
2022-12-31T04:52:37.046Z,100155.97
2022-12-31T04:55:09.129Z,100164.25
2022-12-31T04:57:37.883Z,100164.09
2022-12-31T05:00:11.001Z,100160.28
2022-12-31T05:02:39.106Z,100164.94
2022-12-31T05:05:08.854Z,100164.09
2022-12-31T05:07:38.215Z,100162.78
2022-12-31T05:10:09.503Z,100164.59
2022-12-31T05:12:38.659Z,100165.13
2022-12-31T05:15:10.390Z,100156.16
2022-12-31T05:17:38.387Z,100180.25
2022-12-31T05:20:08.852Z,100172.28
2022-12-31T05:22:38.751Z,100180.91
2022-12-31T05:25:07.416Z,100179.94
2022-12-31T05:27:37.847Z,100174.31
2022-12-31T05:30:08.443Z,100162.47
2022-12-31T05:32:41.369Z,100164.97
2022-12-31T05:35:11.887Z,100173.78
2022-12-31T05:37:41.692Z,100165.66
2022-12-31T05:40:11.846Z,100168.50
2022-12-31T05:42:42.291Z,100177.31
2022-12-31T05:45:13.497Z,100170.31
2022-12-31T05:47:44.354Z,100185.63
2022-12-31T05:50:15.787Z,100163.19
2022-12-31T05:52:47.796Z,100168.16
2022-12-31T05:55:16.579Z,100162.69
2022-12-31T05:57:45.282Z,100172.31
2022-12-31T06:00:14.895Z,100183.31
2022-12-31T06:02:44.170Z,100177.81
2022-12-31T06:05:12.400Z,100190.78
2022-12-31T06:07:40.780Z,100186.47
2022-12-31T06:10:10.961Z,100182.81
2022-12-31T06:12:40.090Z,100169.03
2022-12-31T06:15:11.253Z,100183.34
2022-12-31T06:17:39.865Z,100186.84
2022-12-31T06:20:13.294Z,100200.94
2022-12-31T06:22:41.724Z,100202.31
2022-12-31T06:25:14.229Z,100203.63
2022-12-31T06:27:42.383Z,100207.94
2022-12-31T06:30:12.638Z,100203.63
2022-12-31T06:32:43.589Z,100216.91
2022-12-31T06:35:14.112Z,100212.09
2022-12-31T06:37:42.054Z,100215.47
2022-12-31T06:40:13.522Z,100222.09
2022-12-31T06:42:42.208Z,100217.28
2022-12-31T06:45:10.778Z,100239.56
2022-12-31T06:47:38.923Z,100238.56
2022-12-31T06:50:10.089Z,100253.03
2022-12-31T06:52:38.534Z,100241.56
2022-12-31T06:55:08.538Z,100252.53
2022-12-31T06:57:38.647Z,100234.59
2022-12-31T07:00:09.967Z,100248.41
2022-12-31T07:03:00.448Z,100269.00
2022-12-31T07:05:40.304Z,100261.06
2022-12-31T07:08:20.373Z,100257.91
2022-12-31T07:10:54.820Z,100254.72
2022-12-31T07:16:37.663Z,100257.91
2022-12-31T07:19:19.831Z,100241.25
2022-12-31T07:21:50.697Z,100250.06
2022-12-31T07:24:19.017Z,100284.66
2022-12-31T07:27:03.881Z,100247.25
2022-12-31T07:29:47.316Z,100273.34
2022-12-31T07:32:28.027Z,100260.88
2022-12-31T07:35:05.794Z,100259.22
2022-12-31T07:37:45.101Z,100255.53
2022-12-31T07:40:19.642Z,100258.88
2022-12-31T07:43:05.959Z,100262.22
2022-12-31T07:45:42.545Z,100273.16
2022-12-31T07:48:23.346Z,100278.50
2022-12-31T07:50:54.388Z,100268.34
2022-12-31T07:53:23.318Z,100290.78
2022-12-31T07:55:56.242Z,100273.34
2022-12-31T07:58:33.339Z,100301.63
2022-12-31T08:01:03.361Z,100266.53
2022-12-31T08:03:48.247Z,100303.44
2022-12-31T08:06:23.552Z,100301.44
2022-12-31T08:09:03.718Z,100296.81
2022-12-31T08:11:39.200Z,100318.59
2022-12-31T08:14:10.719Z,100319.59
2022-12-31T08:16:39.655Z,100321.06
2022-12-31T08:19:21.646Z,100327.09
2022-12-31T08:22:01.001Z,100323.09
2022-12-31T08:24:36.068Z,100323.44
2022-12-31T08:27:11.427Z,100338.06
2022-12-31T08:29:50.168Z,100328.25
2022-12-31T08:32:24.610Z,100340.38
2022-12-31T08:35:06.388Z,100351.53
2022-12-31T08:37:41.449Z,100366.66
2022-12-31T08:40:20.365Z,100352.34
2022-12-31T08:43:12.989Z,100347.34
2022-12-31T08:45:54.589Z,100335.88
2022-12-31T08:48:29.738Z,100357.66
2022-12-31T08:51:00.275Z,100335.50
2022-12-31T08:53:29.224Z,100346.16
2022-12-31T08:56:04.469Z,100348.28
2022-12-31T08:58:44.545Z,100344.00
2022-12-31T09:01:15.597Z,100332.38
2022-12-31T09:04:03.709Z,100339.84
2022-12-31T09:06:43.994Z,100349.28
2022-12-31T09:09:25.337Z,100366.13
2022-12-31T09:12:01.419Z,100349.50
2022-12-31T09:14:44.742Z,100337.53
2022-12-31T09:17:30.991Z,100345.50
2022-12-31T09:19:59.565Z,100342.53
2022-12-31T09:22:30.469Z,100349.66
2022-12-31T09:24:58.816Z,100345.50
2022-12-31T09:27:38.788Z,100348.69
2022-12-31T09:30:10.931Z,100359.66
2022-12-31T09:32:48.505Z,100352.69
2022-12-31T09:35:29.373Z,100362.00
2022-12-31T09:38:11.232Z,100366.00
2022-12-31T09:40:54.348Z,100370.34
2022-12-31T09:43:57.340Z,100374.50
2022-12-31T09:46:57.347Z,100383.16
2022-12-31T09:50:00.019Z,100388.31
2022-12-31T09:52:44.807Z,100381.84
2022-12-31T09:55:35.587Z,100385.50
2022-12-31T09:58:18.704Z,100388.97
2022-12-31T10:00:54.393Z,100369.53
2022-12-31T10:03:41.824Z,100373.72
2022-12-31T10:06:21.223Z,100367.38
2022-12-31T10:09:03.675Z,100389.69
2022-12-31T10:11:46.050Z,100373.53
2022-12-31T10:14:29.138Z,100360.41
2022-12-31T10:17:16.274Z,100382.72
2022-12-31T10:20:14.508Z,100393.00
2022-12-31T10:23:05.218Z,100386.22
2022-12-31T10:25:45.557Z,100379.41
2022-12-31T10:28:31.703Z,100388.56
2022-12-31T10:31:09.648Z,100384.56
2022-12-31T10:33:43.875Z,100399.34
2022-12-31T10:36:20.427Z,100387.34
2022-12-31T10:39:08.934Z,100384.81
2022-12-31T10:42:16.770Z,100391.78
2022-12-31T10:45:21.030Z,100408.59
2022-12-31T10:48:41.034Z,100399.59
2022-12-31T10:51:29.359Z,100402.97
2022-12-31T10:54:28.138Z,100413.44
2022-12-31T10:57:42.092Z,100426.22
2022-12-31T11:00:15.109Z,100407.53
2022-12-31T11:03:29.581Z,100395.81
2022-12-31T11:06:45.693Z,100404.31
2022-12-31T11:09:50.448Z,100418.84
2022-12-31T11:12:47.278Z,100396.19
2022-12-31T11:15:31.845Z,100399.66
2022-12-31T11:18:08.850Z,100404.69
2022-12-31T11:21:04.504Z,100417.31
2022-12-31T11:23:40.328Z,100393.44
2022-12-31T11:26:20.539Z,100404.28
2022-12-31T11:29:16.512Z,100405.44
2022-12-31T11:32:10.136Z,100413.13
2022-12-31T11:35:22.197Z,100407.59
2022-12-31T11:37:52.929Z,100405.59
2022-12-31T11:40:32.695Z,100396.09
2022-12-31T11:43:24.490Z,100399.03
2022-12-31T11:46:14.500Z,100390.13
2022-12-31T11:48:51.491Z,100389.44
2022-12-31T11:51:38.950Z,100401.06
2022-12-31T11:54:42.639Z,100390.38
2022-12-31T11:57:24.589Z,100383.16
2022-12-31T12:00:00.969Z,100393.44
2022-12-31T12:02:33.291Z,100373.25
2022-12-31T12:05:10.668Z,100388.41
2022-12-31T12:07:41.787Z,100380.56
2022-12-31T12:10:20.763Z,100366.13
2022-12-31T12:12:49.456Z,100358.81
2022-12-31T12:15:24.375Z,100370.91
2022-12-31T12:17:58.293Z,100378.84
2022-12-31T12:20:32.733Z,100372.22
2022-12-31T12:23:13.843Z,100375.84
2022-12-31T12:25:43.895Z,100357.00
2022-12-31T12:28:24.508Z,100343.97
2022-12-31T12:31:00.132Z,100355.84
2022-12-31T12:33:29.868Z,100359.81
2022-12-31T12:36:08.911Z,100339.56
2022-12-31T12:38:39.729Z,100353.72
2022-12-31T12:41:13.571Z,100361.09
2022-12-31T12:43:41.547Z,100365.03
2022-12-31T12:46:21.874Z,100343.03
2022-12-31T12:48:56.722Z,100348.38
2022-12-31T12:51:55.670Z,100353.72
2022-12-31T12:54:36.999Z,100340.34
2022-12-31T12:57:15.011Z,100343.28
2022-12-31T12:59:59.883Z,100343.16
2022-12-31T13:03:02.646Z,100334.13
2022-12-31T13:05:42.976Z,100340.00
2022-12-31T13:08:28.053Z,100340.47
2022-12-31T13:11:07.955Z,100342.13
2022-12-31T13:13:43.316Z,100340.16
2022-12-31T13:16:19.165Z,100331.59
2022-12-31T13:18:59.836Z,100338.66
2022-12-31T13:21:43.475Z,100335.63
2022-12-31T13:24:22.315Z,100343.47
2022-12-31T13:26:58.134Z,100335.38
2022-12-31T13:29:32.201Z,100317.53
2022-12-31T13:32:03.654Z,100327.81
2022-12-31T13:34:36.135Z,100323.75
2022-12-31T13:37:12.845Z,100330.53
2022-12-31T13:39:46.001Z,100332.41
2022-12-31T13:42:19.423Z,100320.47
2022-12-31T13:44:52.955Z,100327.09
2022-12-31T13:47:28.509Z,100315.66
2022-12-31T13:50:03.654Z,100316.13
2022-12-31T13:52:36.387Z,100312.50
2022-12-31T13:55:12.067Z,100308.88
2022-12-31T13:57:46.209Z,100320.00
2022-12-31T14:00:22.855Z,100312.06
2022-12-31T14:03:07.976Z,100298.31
2022-12-31T14:05:44.005Z,100296.06
2022-12-31T14:08:12.224Z,100313.53
2022-12-31T14:10:52.609Z,100321.31
2022-12-31T14:13:43.408Z,100314.38
2022-12-31T14:16:22.585Z,100302.06
2022-12-31T14:19:05.455Z,100299.47
2022-12-31T14:21:40.749Z,100321.38
2022-12-31T14:24:17.025Z,100323.88
2022-12-31T14:26:48.850Z,100338.91
2022-12-31T14:29:29.981Z,100338.75
2022-12-31T14:32:17.628Z,100353.44
2022-12-31T14:34:55.578Z,100357.63
2022-12-31T14:37:33.984Z,100353.28
2022-12-31T14:40:13.912Z,100358.13
2022-12-31T14:42:50.308Z,100365.16
2022-12-31T14:45:30.010Z,100363.38
2022-12-31T14:48:05.114Z,100369.69
2022-12-31T14:50:34.878Z,100352.03
2022-12-31T14:53:18.598Z,100365.53
2022-12-31T14:55:58.619Z,100354.59
2022-12-31T14:58:32.971Z,100360.06
2022-12-31T15:01:03.243Z,100358.22
2022-12-31T15:03:44.970Z,100363.75
2022-12-31T15:06:33.032Z,100377.72
2022-12-31T15:09:11.541Z,100376.06
2022-12-31T15:11:57.044Z,100375.72
2022-12-31T15:14:43.664Z,100383.22
2022-12-31T15:17:22.542Z,100372.38
2022-12-31T15:20:20.217Z,100365.91
2022-12-31T15:22:52.505Z,100378.22
2022-12-31T15:25:34.009Z,100373.75
2022-12-31T15:28:07.628Z,100379.88
2022-12-31T15:30:43.265Z,100380.38
2022-12-31T15:33:26.979Z,100374.75
2022-12-31T15:35:56.785Z,100375.06
2022-12-31T15:38:35.302Z,100372.75
2022-12-31T15:41:17.124Z,100383.06
2022-12-31T15:43:49.901Z,100383.22
2022-12-31T15:46:22.157Z,100385.03
2022-12-31T15:49:03.477Z,100383.38
2022-12-31T15:51:44.290Z,100381.03
2022-12-31T15:54:23.744Z,100385.38
2022-12-31T15:56:55.509Z,100381.84
2022-12-31T15:59:26.126Z,100377.03
2022-12-31T16:01:57.967Z,100380.84
2022-12-31T16:04:28.555Z,100381.47
2022-12-31T16:07:00.457Z,100385.94
2022-12-31T16:09:31.352Z,100392.91
2022-12-31T16:12:10.605Z,100391.44
2022-12-31T16:14:41.626Z,100405.69
2022-12-31T16:17:27.786Z,100393.34
2022-12-31T16:19:56.799Z,100395.81
2022-12-31T16:22:29.132Z,100392.78
2022-12-31T16:25:29.732Z,100388.22
2022-12-31T16:27:50.815Z,100380.53
2022-12-31T16:30:22.146Z,100387.75
2022-12-31T16:32:53.664Z,100390.09
2022-12-31T16:35:26.110Z,100392.88
2022-12-31T16:38:11.160Z,100403.69
2022-12-31T16:40:39.741Z,100393.66
2022-12-31T16:43:25.717Z,100384.66
2022-12-31T16:45:56.159Z,100393.97
2022-12-31T16:48:24.515Z,100397.94
2022-12-31T16:50:56.588Z,100392.53
2022-12-31T16:53:29.768Z,100391.06
2022-12-31T16:56:01.576Z,100393.44
2022-12-31T16:58:34.598Z,100391.72
2022-12-31T17:01:14.030Z,100401.84
2022-12-31T17:03:45.345Z,100402.31
2022-12-31T17:06:17.151Z,100403.41
2022-12-31T17:08:54.688Z,100397.72
2022-12-31T17:11:28.595Z,100394.69
2022-12-31T17:14:01.886Z,100401.56
2022-12-31T17:16:30.323Z,100389.19
2022-12-31T17:18:58.736Z,100392.19
2022-12-31T17:21:30.300Z,100393.84
2022-12-31T17:24:03.634Z,100394.19
2022-12-31T17:26:37.410Z,100388.41
2022-12-31T17:29:07.999Z,100393.00
2022-12-31T17:31:38.588Z,100396.53
2022-12-31T17:34:24.933Z,100401.34
2022-12-31T17:37:00.252Z,100390.75
2022-12-31T17:39:42.664Z,100398.06
2022-12-31T17:42:12.374Z,100385.44
2022-12-31T17:44:45.447Z,100397.44
2022-12-31T17:47:14.753Z,100388.44
2022-12-31T17:49:45.951Z,100392.75
2022-12-31T17:52:16.507Z,100390.47
2022-12-31T17:54:44.862Z,100387.31
2022-12-31T17:57:24.601Z,100386.63
2022-12-31T17:59:54.516Z,100393.63
2022-12-31T18:02:22.546Z,100397.81
2022-12-31T18:04:50.565Z,100408.59
2022-12-31T18:07:18.879Z,100396.78
2022-12-31T18:09:46.728Z,100401.25
2022-12-31T18:12:16.405Z,100402.81
2022-12-31T18:14:46.486Z,100414.47
2022-12-31T18:17:17.287Z,100410.63
2022-12-31T18:20:04.094Z,100411.00
2022-12-31T18:22:33.501Z,100428.59
2022-12-31T18:25:01.834Z,100424.63
2022-12-31T18:27:31.060Z,100423.94
2022-12-31T18:30:04.858Z,100423.09
2022-12-31T18:32:39.567Z,100437.22
2022-12-31T18:35:33.340Z,100431.78
2022-12-31T18:38:02.914Z,100419.31
2022-12-31T18:40:30.942Z,100427.97
2022-12-31T18:43:04.744Z,100428.78
2022-12-31T18:45:33.515Z,100430.00
2022-12-31T18:48:03.023Z,100443.59
2022-12-31T18:50:31.042Z,100457.75
2022-12-31T18:52:58.959Z,100452.06
2022-12-31T18:55:33.734Z,100449.19
2022-12-31T18:58:03.622Z,100445.75
2022-12-31T19:00:31.645Z,100453.22
2022-12-31T19:02:59.722Z,100457.53
2022-12-31T19:05:30.821Z,100460.66
2022-12-31T19:08:01.843Z,100464.31
2022-12-31T19:10:30.429Z,100466.31
2022-12-31T19:12:58.583Z,100465.63
2022-12-31T19:15:29.568Z,100472.25
2022-12-31T19:17:58.315Z,100468.22
2022-12-31T19:20:29.424Z,100465.88
2022-12-31T19:22:58.586Z,100459.00
2022-12-31T19:25:28.698Z,100460.69
2022-12-31T19:27:56.649Z,100459.50
2022-12-31T19:30:28.254Z,100461.13
2022-12-31T19:32:56.909Z,100460.38
2022-12-31T19:35:25.287Z,100450.56
2022-12-31T19:37:56.952Z,100458.94
2022-12-31T19:40:27.792Z,100460.47
2022-12-31T19:42:56.481Z,100458.41
2022-12-31T19:45:26.048Z,100464.31
2022-12-31T19:47:54.938Z,100453.22
2022-12-31T19:50:27.689Z,100458.66
2022-12-31T19:52:59.610Z,100453.09
2022-12-31T19:55:27.863Z,100456.16
2022-12-31T19:57:55.712Z,100454.94
2022-12-31T20:00:23.529Z,100452.75
2022-12-31T20:02:51.743Z,100452.53
2022-12-31T20:05:20.329Z,100449.13
2022-12-31T20:07:48.277Z,100455.09
2022-12-31T20:10:17.603Z,100459.25
2022-12-31T20:12:47.887Z,100459.00
2022-12-31T20:15:18.887Z,100472.94
2022-12-31T20:17:47.218Z,100468.19
2022-12-31T20:20:15.122Z,100471.22
2022-12-31T20:22:43.131Z,100467.91
2022-12-31T20:25:11.072Z,100464.53
2022-12-31T20:27:40.390Z,100457.41
2022-12-31T20:30:12.659Z,100468.56
2022-12-31T20:32:43.054Z,100468.66
2022-12-31T20:35:11.242Z,100473.75
2022-12-31T20:37:39.408Z,100468.94
2022-12-31T20:40:11.633Z,100466.06
2022-12-31T20:42:41.022Z,100469.25
2022-12-31T20:45:10.401Z,100476.69
2022-12-31T20:47:38.906Z,100471.91
2022-12-31T20:50:11.847Z,100467.53
2022-12-31T20:52:40.163Z,100470.97
2022-12-31T20:55:09.597Z,100466.00
2022-12-31T20:57:37.610Z,100471.09
2022-12-31T21:00:10.916Z,100471.56
2022-12-31T21:02:43.107Z,100469.69
2022-12-31T21:05:12.029Z,100471.13
2022-12-31T21:07:40.203Z,100469.38
2022-12-31T21:10:08.937Z,100479.50
2022-12-31T21:12:44.792Z,100466.84
2022-12-31T21:15:16.642Z,100471.03
2022-12-31T21:17:44.703Z,100481.41
2022-12-31T21:20:16.300Z,100481.53
2022-12-31T21:22:44.245Z,100489.00
2022-12-31T21:25:14.630Z,100492.13
2022-12-31T21:27:42.545Z,100479.25
2022-12-31T21:30:20.327Z,100475.41
2022-12-31T21:32:50.332Z,100479.38
2022-12-31T21:38:08.472Z,100490.31
2022-12-31T21:40:36.353Z,100490.78
2022-12-31T21:43:04.557Z,100495.75
2022-12-31T21:45:33.210Z,100486.13
2022-12-31T21:48:25.044Z,100499.41
2022-12-31T21:50:54.905Z,100508.38
2022-12-31T21:53:29.014Z,100500.41
2022-12-31T21:56:11.658Z,100512.16
2022-12-31T21:58:42.824Z,100505.50
2022-12-31T22:01:35.213Z,100510.97
2022-12-31T22:04:05.651Z,100517.03
2022-12-31T22:06:34.520Z,100519.00
2022-12-31T22:09:05.389Z,100517.94
2022-12-31T22:11:35.565Z,100521.53
2022-12-31T22:14:06.272Z,100537.38
2022-12-31T22:16:37.440Z,100537.09
2022-12-31T22:19:07.023Z,100536.72
2022-12-31T22:21:36.347Z,100540.09
2022-12-31T22:24:05.401Z,100542.53
2022-12-31T22:26:33.585Z,100547.88
2022-12-31T22:29:01.568Z,100546.50
2022-12-31T22:31:31.491Z,100552.38
2022-12-31T22:34:00.402Z,100558.16
2022-12-31T22:36:32.485Z,100568.91
2022-12-31T22:39:01.448Z,100569.28
2022-12-31T22:41:30.361Z,100578.25
2022-12-31T22:44:04.426Z,100580.09
2022-12-31T22:46:34.281Z,100582.03
2022-12-31T22:49:04.554Z,100577.13
2022-12-31T22:51:56.360Z,100580.72
2022-12-31T22:54:24.233Z,100577.41
2022-12-31T22:56:52.525Z,100582.34
2022-12-31T22:59:21.946Z,100580.09
2022-12-31T23:01:50.517Z,100577.81
2022-12-31T23:04:19.385Z,100580.34
2022-12-31T23:06:49.105Z,100582.53
2022-12-31T23:09:36.074Z,100577.31
2022-12-31T23:12:05.867Z,100585.28
2022-12-31T23:14:54.471Z,100567.97
2022-12-31T23:17:41.893Z,100565.47
2022-12-31T23:20:32.511Z,100581.50
2022-12-31T23:23:11.689Z,100582.28
2022-12-31T23:25:45.119Z,100577.59
2022-12-31T23:28:17.781Z,100578.44
2022-12-31T23:30:46.619Z,100582.22
2022-12-31T23:33:16.510Z,100584.03
2022-12-31T23:35:45.859Z,100581.09
2022-12-31T23:38:18.490Z,100582.38
2022-12-31T23:40:46.681Z,100576.44
2022-12-31T23:43:22.578Z,100581.03
2022-12-31T23:45:51.748Z,100589.69
2022-12-31T23:48:20.118Z,100595.13
2022-12-31T23:50:53.750Z,100589.91
2022-12-31T23:53:23.657Z,100589.72
2022-12-31T23:55:52.091Z,100590.31
2022-12-31T23:58:21.052Z,100594.41
